Time;durP1;ratioP1;P1;durP2;ratioP2;P2;SDS_P1;SDS_P2;PMS_P1;PMS_P2;Temp;Humidity;BMP_temperature;BMP_pressure;BME280_temperature;BME280_humidity;BME280_pressure;Samples;Min_cycle;Max_cycle;Signal;HPM_P1;HPM_P2
2022/06/14 00:00:53;;;;;;;3.65;1.60;;;;;;;19.85;41.38;92726.97;4788288;29;20572;-74
2022/06/14 00:03:48;;;;;;;3.15;1.60;;;;;;;19.82;39.91;92724.97;4789346;30;20039;-74
2022/06/14 00:06:19;;;;;;;3.00;1.73;;;;;;;19.82;39.82;92732.97;4761888;30;20093;-75
2022/06/14 00:08:45;;;;;;;3.20;1.50;;;;;;;19.80;39.51;92732.50;4789179;29;20038;-74
2022/06/14 00:11:19;;;;;;;2.88;1.38;;;;;;;19.80;39.52;92730.63;4790022;29;20042;-75
2022/06/14 00:13:45;;;;;;;3.88;1.80;;;;;;;19.80;39.59;92735.94;4789111;30;20529;-74
2022/06/14 00:16:14;;;;;;;5.43;1.67;;;;;;;19.82;39.54;92733.72;4789210;30;20474;-74
2022/06/14 00:18:39;;;;;;;3.15;1.58;;;;;;;19.82;39.30;92727.63;4772977;30;20502;-74
2022/06/14 00:21:05;;;;;;;3.80;1.90;;;;;;;19.83;38.89;92726.50;4790423;29;20045;-74
2022/06/14 00:23:31;;;;;;;3.67;1.58;;;;;;;19.85;38.77;92733.03;4791155;29;20548;-74
2022/06/14 00:25:58;;;;;;;3.10;1.60;;;;;;;19.85;39.04;92734.94;4806981;29;20043;-75
2022/06/14 00:28:26;;;;;;;4.47;1.58;;;;;;;19.85;39.34;92729.63;4807072;29;20523;-75
2022/06/14 00:30:57;;;;;;;3.15;1.60;;;;;;;19.77;40.07;92741.94;4790492;29;20070;-74
2022/06/14 00:33:23;;;;;;;4.80;1.85;;;;;;;19.67;40.92;92729.84;4790556;29;20383;-74
2022/06/14 00:35:55;;;;;;;4.78;1.92;;;;;;;19.56;41.82;92742.06;4806804;29;20038;-74
2022/06/14 00:38:21;;;;;;;3.33;1.60;;;;;;;19.43;42.34;92738.66;4806896;29;20126;-74
2022/06/14 00:40:56;;;;;;;4.22;1.70;;;;;;;19.27;42.89;92738.59;4807076;29;20106;-74
2022/06/14 00:43:23;;;;;;;3.00;1.48;;;;;;;19.17;43.08;92740.91;4790377;29;20155;-74
2022/06/14 00:45:49;;;;;;;3.78;1.70;;;;;;;19.02;43.59;92739.69;4790850;29;20541;-75
2022/06/14 00:48:22;;;;;;;5.97;1.70;;;;;;;18.92;43.84;92746.97;4772248;30;20069;-73
2022/06/14 00:50:49;;;;;;;4.85;1.60;;;;;;;18.87;43.70;92749.84;4772246;30;20397;-74
2022/06/14 00:53:50;;;;;;;4.75;1.65;;;;;;;18.81;44.54;92747.75;4772221;30;20047;-74
2022/06/14 00:56:23;;;;;;;5.38;1.83;;;;;;;18.65;45.30;92744.94;4784506;30;20067;-74
2022/06/14 00:59:15;;;;;;;3.85;1.60;;;;;;;18.55;45.39;92758.63;4788236;30;20647;-75
2022/06/14 01:01:43;;;;;;;5.50;1.70;;;;;;;18.46;45.50;92748.91;4789704;29;20080;-74
2022/06/14 01:04:17;;;;;;;2.83;1.55;;;;;;;18.44;45.77;92748.44;4790185;29;20053;-74
2022/06/14 01:06:51;;;;;;;3.17;1.65;;;;;;;18.37;46.03;92748.19;4819513;29;20042;-74
2022/06/14 01:09:22;;;;;;;5.05;1.73;;;;;;;18.34;46.40;92748.84;4823863;29;20046;-75
2022/06/14 01:11:53;;;;;;;3.00;1.50;;;;;;;18.28;47.66;92744.84;4808022;29;20102;-74
2022/06/14 01:14:24;;;;;;;3.88;1.73;;;;;;;18.25;47.94;92750.81;4824020;29;20046;-75
2022/06/14 01:16:51;;;;;;;4.27;1.67;;;;;;;18.17;48.39;92749.00;4807678;29;20030;-74
2022/06/14 01:19:24;;;;;;;2.30;1.50;;;;;;;18.10;48.94;92755.63;4823889;29;20294;-74
2022/06/14 01:22:12;;;;;;;3.35;1.85;;;;;;;18.05;49.17;92755.81;4804810;29;20077;-74
2022/06/14 01:24:41;;;;;;;3.67;1.70;;;;;;;18.00;49.38;92758.69;4795828;29;20046;-75
2022/06/14 01:27:11;;;;;;;3.17;1.58;;;;;;;17.98;49.34;92752.94;4805724;29;20126;-75
2022/06/14 01:29:40;;;;;;;3.58;1.80;;;;;;;17.99;49.87;92756.34;4805728;29;20039;-74
2022/06/14 01:32:10;;;;;;;3.72;1.80;;;;;;;17.95;50.07;92758.13;4805657;29;20034;-74
2022/06/14 01:34:48;;;;;;;3.00;1.70;;;;;;;17.89;50.08;92760.94;4805977;29;20062;-74
2022/06/14 01:37:14;;;;;;;9.48;1.90;;;;;;;17.89;50.20;92760.94;4807473;29;20050;-74
2022/06/14 01:39:40;;;;;;;5.15;1.90;;;;;;;17.88;50.17;92770.00;4807858;29;20393;-74
2022/06/14 01:42:11;;;;;;;3.45;1.80;;;;;;;17.88;49.89;92769.22;4810300;29;20082;-74
2022/06/14 01:45:15;;;;;;;4.57;1.95;;;;;;;17.89;49.15;92773.41;4804025;29;20103;-74
2022/06/14 01:48:02;;;;;;;4.55;1.90;;;;;;;17.93;49.11;92765.59;4759684;29;20437;-74
2022/06/14 01:54:06;;;;;;;4.30;1.60;;;;;;;17.97;48.94;92769.94;4823416;29;20049;-74
2022/06/14 01:56:43;;;;;;;3.92;1.70;;;;;;;18.16;44.19;92766.03;4809688;29;20355;-75
2022/06/14 01:59:11;;;;;;;4.10;1.60;;;;;;;18.51;41.66;92775.19;4789091;29;20400;-74
2022/06/14 02:01:56;;;;;;;3.40;1.52;;;;;;;18.52;42.52;92776.72;4785967;30;20051;-74
2022/06/14 02:04:38;;;;;;;4.10;1.55;;;;;;;18.49;42.16;92771.31;4787279;29;20042;-74
2022/06/14 02:07:20;;;;;;;3.37;1.60;;;;;;;18.43;43.39;92778.69;4787148;30;20108;-74
2022/06/14 02:09:59;;;;;;;4.57;1.90;;;;;;;18.33;44.66;92776.47;4787167;29;20051;-74
2022/06/14 02:12:51;;;;;;;3.22;1.60;;;;;;;18.24;45.36;92770.47;4787110;29;20065;-74
2022/06/14 02:15:22;;;;;;;3.45;1.70;;;;;;;18.15;46.88;92769.75;4800520;29;20100;-74
2022/06/14 02:18:05;;;;;;;5.90;1.98;;;;;;;18.07;47.10;92771.41;4787285;29;20521;-74
2022/06/14 02:20:43;;;;;;;5.35;1.80;;;;;;;17.99;47.36;92780.19;4803265;29;20046;-75
2022/06/14 02:23:09;;;;;;;3.15;1.40;;;;;;;17.90;47.00;92774.97;4804688;29;20031;-74
2022/06/14 02:25:58;;;;;;;3.42;1.73;;;;;;;17.79;47.04;92782.50;4804859;29;20119;-74
2022/06/14 02:28:36;;;;;;;4.32;1.80;;;;;;;17.65;47.80;92780.13;4804973;29;20479;-73
2022/06/14 02:31:07;;;;;;;2.65;1.58;;;;;;;17.56;48.13;92779.41;4804841;29;20501;-74
2022/06/14 02:33:58;;;;;;;3.33;1.63;;;;;;;17.49;48.74;92779.13;4800599;29;20043;-74
2022/06/14 02:36:33;;;;;;;3.08;1.67;;;;;;;17.48;48.43;92788.16;4785432;29;20047;-74
2022/06/14 02:39:24;;;;;;;2.88;1.48;;;;;;;17.44;48.86;92787.25;4786972;29;20039;-74
2022/06/14 02:41:57;;;;;;;2.83;1.55;;;;;;;17.41;48.34;92787.91;4783517;30;20150;-74
2022/06/14 02:44:51;;;;;;;6.55;1.80;;;;;;;17.38;48.80;92791.19;4786423;29;20046;-74
2022/06/14 02:47:42;;;;;;;3.33;1.80;;;;;;;17.36;49.21;92793.38;4796471;29;20051;-74
2022/06/14 02:50:19;;;;;;;5.15;1.90;;;;;;;17.33;49.10;92791.38;4786701;29;20036;-74
2022/06/14 02:52:52;;;;;;;4.38;2.00;;;;;;;17.28;49.33;92795.75;4786595;29;20062;-74
2022/06/14 02:55:28;;;;;;;5.15;1.80;;;;;;;17.24;49.38;92802.00;4786335;29;20035;-74
2022/06/14 02:58:05;;;;;;;3.00;1.77;;;;;;;17.22;49.13;92798.88;4785124;30;20039;-75
2022/06/14 03:00:38;;;;;;;4.03;1.88;;;;;;;17.17;49.49;92799.06;4795418;29;20521;-75
2022/06/14 03:03:06;;;;;;;;;;;;;;;17.16;49.23;92805.47;4802997;29;20390;-74
2022/06/14 03:05:45;;;;;;;3.63;1.80;;;;;;;17.15;49.24;92807.31;4787761;29;19959;-74
2022/06/14 03:08:20;;;;;;;3.10;1.70;;;;;;;17.13;49.00;92804.22;4800686;29;20046;-74
2022/06/14 03:11:11;;;;;;;4.03;1.90;;;;;;;17.12;49.03;92807.97;4785234;30;20089;-74
2022/06/14 03:13:58;;;;;;;3.57;1.60;;;;;;;17.05;48.61;92811.09;4784759;30;20417;-74
2022/06/14 03:16:34;;;;;;;3.10;1.70;;;;;;;17.04;48.68;92808.78;4785161;30;20046;-74
2022/06/14 03:19:23;;;;;;;6.75;3.20;;;;;;;17.01;48.56;92817.34;4789475;29;20085;-74
2022/06/14 03:21:57;;;;;;;3.53;1.70;;;;;;;16.98;48.66;92820.66;4769791;30;20054;-74
2022/06/14 03:24:36;;;;;;;3.28;1.63;;;;;;;16.97;48.66;92813.78;4769818;30;20039;-74
2022/06/14 03:27:07;;;;;;;3.47;1.50;;;;;;;16.93;49.26;92818.94;4786041;30;20050;-74
2022/06/14 03:29:59;;;;;;;4.15;1.67;;;;;;;16.89;49.87;92817.22;4785916;30;20035;-74
2022/06/14 03:32:58;;;;;;;5.80;1.80;;;;;;;16.85;49.86;92817.88;4787811;29;20391;-74
2022/06/14 03:35:29;;;;;;;3.83;1.70;;;;;;;16.81;49.68;92816.94;4800316;29;20053;-74
2022/06/14 03:37:59;;;;;;;5.70;1.70;;;;;;;16.80;50.58;92820.69;4803875;29;20485;-74
2022/06/14 03:40:25;;;;;;;3.45;1.75;;;;;;;16.75;51.13;92826.13;4786637;29;20474;-74
2022/06/14 03:42:51;;;;;;;6.28;1.80;;;;;;;16.69;51.63;92832.66;4785679;29;20083;-74
2022/06/14 03:45:21;;;;;;;3.38;1.60;;;;;;;16.66;51.70;92828.00;4785659;30;20051;-74
2022/06/14 03:47:47;;;;;;;5.20;1.80;;;;;;;16.57;52.69;92824.59;4784943;30;20050;-74
2022/06/14 03:50:21;;;;;;;3.85;1.80;;;;;;;16.62;52.52;92821.81;4794769;29;20094;-74
2022/06/14 03:53:24;;;;;;;6.13;1.90;;;;;;;16.65;53.42;92823.81;4803577;29;20046;-74
2022/06/14 03:56:13;;;;;;;3.40;1.65;;;;;;;16.65;53.60;92821.16;4803789;29;20039;-74
2022/06/14 03:59:04;;;;;;;6.60;1.98;;;;;;;16.62;53.79;92835.03;4803949;29;20043;-73
2022/06/14 04:01:41;;;;;;;6.20;1.80;;;;;;;16.61;53.54;92836.88;4787539;29;20059;-74
2022/06/14 04:04:23;;;;;;;4.03;1.70;;;;;;;16.63;53.93;92839.22;4785656;30;20043;-74
2022/06/14 04:06:52;;;;;;;3.20;1.90;;;;;;;16.65;54.31;92842.31;4785688;30;20044;-74
2022/06/14 04:09:39;;;;;;;5.47;1.88;;;;;;;16.65;54.28;92842.31;4785914;30;20054;-73
2022/06/14 04:12:43;;;;;;;3.60;2.00;;;;;;;16.67;53.68;92845.41;4785982;29;20047;-74
2022/06/14 04:15:46;;;;;;;4.30;1.90;;;;;;;16.71;53.83;92849.00;4721610;30;20056;-74
2022/06/14 04:18:38;;;;;;;4.55;1.90;;;;;;;16.73;53.71;92860.03;4788566;29;20047;-76
2022/06/14 04:21:12;;;;;;;4.20;2.13;;;;;;;16.77;53.75;92852.22;4782886;30;20106;-75
2022/06/14 04:24:05;;;;;;;5.18;2.00;;;;;;;16.80;54.36;92851.66;4785509;30;20050;-77
2022/06/14 04:27:08;;;;;;;6.82;2.17;;;;;;;16.84;54.43;92856.00;4785378;30;20398;-76
2022/06/14 04:29:37;;;;;;;3.22;1.75;;;;;;;16.89;54.20;92846.31;4778105;30;20114;-76
2022/06/14 04:32:19;;;;;;;5.05;1.73;;;;;;;16.94;53.71;92848.81;4803028;29;20513;-76
2022/06/14 04:34:48;;;;;;;3.78;1.83;;;;;;;16.98;53.87;92847.84;4802203;29;20049;-75
2022/06/14 04:37:40;;;;;;;3.97;2.22;;;;;;;17.05;53.65;92850.00;4797389;29;20043;-75
2022/06/14 04:40:20;;;;;;;4.53;1.95;;;;;;;17.08;54.22;92852.00;4785160;30;20032;-75
2022/06/14 04:43:07;;;;;;;3.53;1.85;;;;;;;17.13;53.94;92854.47;4785905;29;20127;-76
2022/06/14 04:45:47;;;;;;;6.22;1.85;;;;;;;17.19;54.49;92855.84;4798203;29;20401;-75
2022/06/14 04:48:18;;;;;;;4.15;2.00;;;;;;;17.24;54.55;92855.66;4806605;29;20050;-75
2022/06/14 04:50:55;;;;;;;3.65;1.88;;;;;;;17.29;54.38;92854.72;4805446;29;20038;-76
2022/06/14 04:53:28;;;;;;;3.75;2.00;;;;;;;17.37;54.50;92861.84;4798732;29;20035;-77
2022/06/14 04:55:59;;;;;;;4.07;1.80;;;;;;;17.42;54.62;92856.38;4789702;30;20125;-77
2022/06/14 04:58:39;;;;;;;4.72;2.08;;;;;;;17.49;54.64;92855.88;4794301;29;20038;-78
2022/06/14 05:01:14;;;;;;;4.15;1.73;;;;;;;17.55;54.28;92865.19;4786394;29;20071;-76
2022/06/14 05:04:02;;;;;;;3.33;1.70;;;;;;;17.61;54.59;92866.56;4792523;29;20406;-77
2022/06/14 05:06:32;;;;;;;4.00;1.80;;;;;;;17.68;54.08;92861.53;4789614;29;20031;-77
2022/06/14 05:09:16;;;;;;;3.67;2.08;;;;;;;17.76;54.39;92857.28;4794511;29;20031;-78
2022/06/14 05:11:52;;;;;;;4.07;1.65;;;;;;;17.85;54.44;92868.59;4798797;29;20388;-76
2022/06/14 05:14:25;;;;;;;4.05;1.80;;;;;;;17.92;54.98;92862.81;4802775;29;20035;-78
2022/06/14 05:16:57;;;;;;;3.67;1.80;;;;;;;18.01;54.78;92863.53;4795564;29;20043;-76
2022/06/14 05:19:53;;;;;;;6.70;1.92;;;;;;;18.14;54.29;92860.94;4788320;30;20046;-76
2022/06/14 05:22:44;;;;;;;4.43;1.67;;;;;;;18.24;55.45;92865.88;4787210;30;20084;-78
2022/06/14 05:25:12;;;;;;;3.42;1.95;;;;;;;18.34;55.51;92870.00;4805055;29;20045;-76
2022/06/14 05:28:07;;;;;;;5.65;1.95;;;;;;;18.44;55.92;92872.22;4782834;30;20075;-75
2022/06/14 05:30:57;;;;;;;6.03;1.77;;;;;;;18.54;55.58;92868.41;4770821;30;20074;-74
2022/06/14 05:33:55;;;;;;;4.78;1.98;;;;;;;18.61;55.40;92873.97;4777670;29;20185;-74
2022/06/14 05:36:29;;;;;;;4.03;2.00;;;;;;;18.71;55.39;92869.03;4747387;29;20054;-74
2022/06/14 05:39:22;;;;;;;4.60;2.00;;;;;;;18.83;54.85;92868.31;4786473;29;20398;-74
2022/06/14 05:41:55;;;;;;;3.50;1.80;;;;;;;18.96;54.38;92879.72;4787009;30;20046;-74
2022/06/14 05:44:31;;;;;;;4.38;1.70;;;;;;;19.33;53.83;92879.78;4787043;30;20082;-74
2022/06/14 05:47:01;;;;;;;3.67;1.90;;;;;;;20.02;52.09;92877.34;4787007;30;20523;-75
2022/06/14 05:49:36;;;;;;;4.50;1.83;;;;;;;20.78;50.52;92883.66;4787118;30;20031;-75
2022/06/14 05:52:51;;;;;;;3.78;1.90;;;;;;;21.56;48.92;92889.44;4787218;30;20034;-75
2022/06/14 05:55:26;;;;;;;3.05;1.95;;;;;;;22.23;47.00;92889.44;4717463;30;20112;-75
2022/06/14 05:57:58;;;;;;;3.45;1.70;;;;;;;22.79;45.30;92890.94;4756555;30;20077;-75
2022/06/14 06:00:47;;;;;;;5.35;1.95;;;;;;;23.20;44.27;92889.44;4787483;29;20043;-75
2022/06/14 06:03:36;;;;;;;5.07;2.20;;;;;;;23.74;42.99;92890.31;4784183;30;20084;-75
2022/06/14 06:06:12;;;;;;;5.55;2.20;;;;;;;24.10;43.29;92890.84;4787653;30;20031;-75
2022/06/14 06:08:46;;;;;;;3.80;2.00;;;;;;;24.51;42.13;92899.06;4787356;29;20470;-75
2022/06/14 06:11:36;;;;;;;5.70;1.90;;;;;;;24.95;39.94;92903.81;4787372;30;20050;-76
2022/06/14 06:14:34;;;;;;;4.80;2.10;;;;;;;25.05;42.85;92897.78;4786088;30;20494;-76
2022/06/14 06:17:19;;;;;;;6.82;2.35;;;;;;;25.12;43.48;92908.56;4787163;29;20031;-75
2022/06/14 06:20:13;;;;;;;4.82;1.80;;;;;;;25.05;41.37;92903.13;4786069;30;20031;-76
2022/06/14 06:22:57;;;;;;;6.32;2.22;;;;;;;25.08;43.18;92907.78;4787069;30;20043;-75
2022/06/14 06:25:26;;;;;;;3.67;2.10;;;;;;;25.20;42.48;92914.81;4786993;30;20406;-76
2022/06/14 06:28:00;;;;;;;5.60;2.20;;;;;;;25.17;43.66;92915.50;4786969;30;20035;-76
2022/06/14 06:30:37;;;;;;;6.05;2.08;;;;;;;24.87;44.67;92913.63;4786892;30;20048;-75
2022/06/14 06:33:02;;;;;;;5.63;2.10;;;;;;;24.27;43.92;92914.41;4786890;30;20035;-75
2022/06/14 06:35:43;;;;;;;6.53;2.13;;;;;;;23.99;45.16;92914.00;4786827;30;20050;-75
2022/06/14 06:38:24;;;;;;;8.25;2.15;;;;;;;24.23;45.79;92913.59;4786916;29;20542;-75
2022/06/14 06:43:44;;;;;;;8.32;2.28;;;;;;;24.95;43.54;92922.53;4786616;30;20047;-75
2022/06/14 06:46:13;;;;;;;5.60;2.15;;;;;;;24.71;44.85;92921.09;4785384;30;20418;-75
2022/06/14 06:48:45;;;;;;;9.27;2.10;;;;;;;24.12;45.41;92923.34;4770645;30;20418;-75
2022/06/14 06:51:12;;;;;;;;;;;;;;;23.86;44.44;92926.78;4785895;30;20051;-75
2022/06/14 06:53:51;;;;;;;7.32;2.50;;;;;;;23.65;47.19;92932.53;4786603;29;19917;-75
2022/06/14 06:56:22;;;;;;;12.57;2.20;;;;;;;23.56;46.59;92929.34;4786667;30;20051;-75
2022/06/14 06:58:57;;;;;;;4.57;2.13;;;;;;;23.59;47.12;92934.72;4786531;29;20068;-75
2022/06/14 07:01:27;;;;;;;7.90;2.28;;;;;;;23.76;47.57;92938.84;4785204;30;20060;-75
2022/06/14 07:04:07;;;;;;;7.68;2.42;;;;;;;24.00;47.82;92939.59;4786358;29;20043;-75
2022/06/14 07:06:42;;;;;;;5.68;2.13;;;;;;;24.26;44.66;92939.59;4786047;30;20083;-75
2022/06/14 07:09:21;;;;;;;4.72;2.13;;;;;;;24.42;39.21;92938.66;4786219;30;20047;-75
2022/06/14 07:11:57;;;;;;;7.25;2.00;;;;;;;24.65;44.86;92938.59;4785235;30;20074;-75
2022/06/14 07:14:25;;;;;;;2.85;1.63;;;;;;;24.76;37.04;92944.09;4786580;29;20376;-75
2022/06/14 07:17:19;;;;;;;4.22;1.90;;;;;;;24.90;39.18;92949.63;4785070;30;20088;-75
2022/06/14 07:19:54;;;;;;;3.78;1.88;;;;;;;25.11;38.79;92949.13;4785119;30;20047;-75
2022/06/14 07:22:27;;;;;;;8.18;2.47;;;;;;;25.05;36.97;92953.25;4786283;29;20047;-75
2022/06/14 07:25:09;;;;;;;5.57;1.90;;;;;;;24.94;37.46;92955.78;4786474;30;20122;-75
2022/06/14 07:27:41;;;;;;;5.47;1.80;;;;;;;24.63;38.78;92952.38;4786281;29;20509;-75
2022/06/14 07:30:11;;;;;;;;;;;;;;;24.54;37.36;92946.50;4786314;29;20047;-75
2022/06/14 07:32:46;;;;;;;5.05;2.05;;;;;;;24.43;38.49;92948.22;4784937;30;20115;-75
2022/06/14 07:35:14;;;;;;;6.05;2.20;;;;;;;24.17;43.35;92947.13;4770142;30;20047;-75
2022/06/14 07:37:58;;;;;;;7.47;3.08;;;;;;;24.03;43.92;92942.34;4784790;30;20061;-75
2022/06/14 07:40:24;;;;;;;6.18;2.90;;;;;;;24.50;43.81;92943.03;4770276;30;20035;-75
2022/06/14 07:42:57;;;;;;;5.85;2.88;;;;;;;24.90;41.58;92944.25;4786196;30;20038;-75
2022/06/14 07:45:44;;;;;;;8.82;2.60;;;;;;;25.21;42.95;92958.44;4786127;30;20219;-75
2022/06/14 07:48:26;;;;;;;5.03;2.28;;;;;;;25.05;43.66;92959.38;4786029;30;20122;-75
2022/06/14 07:51:02;;;;;;;6.38;2.53;;;;;;;25.24;41.87;92957.69;4785881;30;20132;-75
2022/06/14 07:53:39;;;;;;;6.28;2.63;;;;;;;25.38;41.37;92963.22;4786014;30;20617;-75
2022/06/14 07:56:14;;;;;;;4.38;2.33;;;;;;;25.24;40.88;92963.03;4769964;30;20046;-75
2022/06/14 07:58:58;;;;;;;4.38;2.53;;;;;;;25.40;40.80;92960.94;4785809;30;20035;-75
2022/06/14 08:01:34;;;;;;;7.75;3.05;;;;;;;25.32;40.37;92965.44;4784730;29;20061;-75
2022/06/14 08:04:07;;;;;;;6.03;3.00;;;;;;;25.37;40.53;92960.88;4769694;30;20070;-75
2022/06/14 08:06:41;;;;;;;8.15;2.83;;;;;;;25.04;41.38;92959.72;4769728;30;20412;-74
2022/06/14 08:09:17;;;;;;;6.13;3.10;;;;;;;24.97;41.04;92965.78;4785702;30;20434;-75
2022/06/14 08:11:45;;;;;;;4.68;2.55;;;;;;;25.36;42.30;92965.47;4784757;30;20043;-75
2022/06/14 08:14:20;;;;;;;6.20;3.03;;;;;;;25.33;41.75;92968.88;4785875;30;20439;-75
2022/06/14 08:16:49;;;;;;;7.40;2.95;;;;;;;25.14;42.79;92969.81;4786122;29;20035;-75
2022/06/14 08:19:30;;;;;;;5.00;3.20;;;;;;;25.52;41.11;92973.28;4772573;30;20036;-75
2022/06/14 08:22:03;;;;;;;4.68;3.03;;;;;;;25.63;41.45;92968.03;4787946;30;20112;-75
2022/06/14 08:24:35;;;;;;;5.13;3.10;;;;;;;25.27;42.53;92973.03;4789039;30;20525;-75
2022/06/14 08:27:20;;;;;;;;;;;;;;;25.22;41.88;92973.34;4773567;30;20066;-75
2022/06/14 08:29:49;;;;;;;8.15;3.22;;;;;;;25.20;41.32;92978.31;4772380;30;19961;-75
2022/06/14 08:32:23;;;;;;;5.95;3.40;;;;;;;24.72;42.39;92976.97;4789025;30;20039;-75
2022/06/14 08:35:01;;;;;;;6.25;3.80;;;;;;;24.56;43.55;92973.66;4787922;30;20050;-74
2022/06/14 08:37:39;;;;;;;5.35;3.47;;;;;;;24.55;44.37;92982.84;4772967;30;20051;-75
2022/06/14 08:40:33;;;;;;;9.18;3.55;;;;;;;24.82;42.48;92975.53;4787568;30;20039;-75
2022/06/14 08:43:08;;;;;;;6.80;3.88;;;;;;;24.50;43.60;92985.84;4787534;30;20071;-75
2022/06/14 08:45:41;;;;;;;8.55;3.97;;;;;;;24.49;43.60;92978.94;4772659;30;20434;-75
2022/06/14 08:48:18;;;;;;;14.55;4.38;;;;;;;24.33;44.36;92972.94;4788822;30;20134;-75
2022/06/14 08:51:10;;;;;;;5.35;3.63;;;;;;;25.09;42.87;92970.91;4788653;30;20042;-75
2022/06/14 08:54:03;;;;;;;7.53;3.40;;;;;;;25.13;44.16;92971.72;4787319;30;20055;-74
2022/06/14 08:56:50;;;;;;;8.77;3.60;;;;;;;25.38;43.39;92975.84;4787266;30;20043;-75
2022/06/14 08:59:37;;;;;;;7.03;3.60;;;;;;;25.02;45.25;92978.84;4788560;30;20130;-75
2022/06/14 09:02:24;;;;;;;5.70;4.18;;;;;;;25.15;44.05;92971.31;4787313;30;20047;-75
2022/06/14 09:05:22;;;;;;;6.60;3.60;;;;;;;25.41;43.54;92975.84;4788531;30;20402;-75
2022/06/14 09:08:15;;;;;;;5.43;4.00;;;;;;;25.55;44.66;92972.53;4788356;30;20038;-74
2022/06/14 09:10:54;;;;;;;7.85;4.43;;;;;;;25.68;42.48;92981.09;4772099;30;20043;-75
2022/06/14 09:13:35;;;;;;;6.50;4.03;;;;;;;25.86;44.22;92976.66;4788295;30;20039;-75
2022/06/14 09:16:06;;;;;;;6.70;4.00;;;;;;;26.00;41.42;92972.59;4788390;30;20051;-75
2022/06/14 09:18:53;;;;;;;6.57;4.22;;;;;;;26.19;42.68;92972.38;4788205;30;20039;-75
2022/06/14 09:21:37;;;;;;;6.25;4.13;;;;;;;25.79;43.36;92981.97;4786944;30;20047;-75
2022/06/14 09:24:25;;;;;;;8.20;3.58;;;;;;;25.21;45.78;92977.19;4787004;30;20039;-75
2022/06/14 09:27:06;;;;;;;7.63;4.00;;;;;;;25.58;45.62;92977.19;4788224;30;20049;-74
2022/06/14 09:29:59;;;;;;;6.80;3.97;;;;;;;25.59;46.28;92970.69;4786839;29;20046;-75
2022/06/14 09:33:09;;;;;;;8.23;4.47;;;;;;;25.75;43.62;92978.47;4801068;29;20039;-75
2022/06/14 09:36:04;;;;;;;9.20;5.00;;;;;;;25.29;44.44;92982.25;4805587;29;20039;-74
2022/06/14 09:39:01;;;;;;;9.13;4.95;;;;;;;25.61;44.33;92976.44;4805939;29;20039;-74
2022/06/14 09:41:41;;;;;;;10.52;5.72;;;;;;;25.44;44.08;92971.66;4806096;29;20038;-74
2022/06/14 09:44:34;;;;;;;7.40;5.10;;;;;;;24.82;45.14;92964.84;4774756;29;20146;-75
2022/06/14 09:47:28;;;;;;;8.52;4.60;;;;;;;24.80;45.83;92969.78;4805706;29;20038;-75
2022/06/14 09:50:30;;;;;;;12.60;5.00;;;;;;;24.25;49.31;92964.03;4805552;29;20137;-75
2022/06/14 09:53:33;;;;;;;10.43;5.07;;;;;;;24.51;47.65;92963.28;4804535;29;20100;-75
2022/06/14 09:56:32;;;;;;;9.73;5.25;;;;;;;24.61;47.78;92973.38;4804605;29;20103;-74
2022/06/14 09:59:21;;;;;;;11.35;5.43;;;;;;;24.40;47.44;92967.69;4805714;29;20031;-75
2022/06/14 10:02:24;;;;;;;7.65;4.82;;;;;;;24.60;47.00;92960.34;4799084;29;20438;-77
2022/06/14 10:05:23;;;;;;;9.07;5.18;;;;;;;24.40;47.89;92965.00;4778066;29;20035;-77
2022/06/14 10:08:11;;;;;;;11.05;5.75;;;;;;;24.18;49.05;92963.94;4804613;29;20039;-78
2022/06/14 10:10:45;;;;;;;6.60;5.13;;;;;;;24.15;48.95;92968.09;4772280;30;20087;-77
2022/06/14 10:13:36;;;;;;;6.18;5.07;;;;;;;24.19;50.62;92968.94;4773518;30;20104;-77
2022/06/14 10:16:36;;;;;;;9.13;5.15;;;;;;;24.06;48.00;92964.91;4786174;30;20584;-77
2022/06/14 10:19:14;;;;;;;11.75;5.45;;;;;;;24.19;48.83;92960.13;4776592;29;20454;-77
2022/06/14 10:21:47;;;;;;;10.00;5.30;;;;;;;24.42;49.29;92970.78;4794141;29;20133;-76
2022/06/14 10:24:18;;;;;;;11.55;5.50;;;;;;;24.45;47.83;92962.03;4771456;30;20047;-77
2022/06/14 10:30:19;;;;;;;9.27;5.30;;;;;;;25.01;49.32;92960.47;4787248;30;20046;-77
2022/06/14 10:33:12;;;;;;;8.20;5.90;;;;;;;24.80;49.29;92961.75;4771201;30;20053;-77
2022/06/14 10:35:53;;;;;;;7.82;4.93;;;;;;;24.30;50.55;92956.47;4779809;29;20046;-76
2022/06/14 10:38:43;;;;;;;9.40;5.53;;;;;;;24.24;50.19;92965.16;4805345;29;20518;-77
2022/06/14 10:41:28;;;;;;;10.18;6.05;;;;;;;24.10;49.47;92968.41;4788199;29;20042;-77
2022/06/14 10:44:08;;;;;;;9.43;6.80;;;;;;;24.30;48.50;92967.19;4788600;29;20050;-77
2022/06/14 10:46:43;;;;;;;9.73;5.30;;;;;;;24.55;50.54;92963.34;4789217;29;20043;-77
2022/06/14 10:49:28;;;;;;;9.18;5.50;;;;;;;24.84;50.27;92961.81;4802465;29;20042;-76
2022/06/14 10:52:15;;;;;;;10.90;6.65;;;;;;;24.03;49.86;92952.25;4797061;29;20038;-76
2022/06/14 10:54:44;;;;;;;11.15;5.82;;;;;;;23.86;52.26;92969.56;4804726;29;20410;-76
2022/06/14 10:57:38;;;;;;;11.65;6.03;;;;;;;24.15;51.49;92954.72;4788873;29;20035;-77
2022/06/14 11:00:28;;;;;;;10.77;5.90;;;;;;;24.49;50.28;92960.97;4790913;29;20135;-77
2022/06/14 11:03:31;;;;;;;9.50;5.13;;;;;;;24.51;51.11;92961.38;4803990;29;20045;-77
2022/06/14 11:06:39;;;;;;;12.38;6.45;;;;;;;24.71;51.45;92962.03;4804584;29;20047;-76
2022/06/14 11:09:05;;;;;;;9.45;6.75;;;;;;;24.55;50.27;92953.41;4818410;29;20053;-77
2022/06/14 11:11:40;;;;;;;10.80;6.95;;;;;;;24.27;51.46;92956.41;4804530;29;20035;-77
2022/06/14 11:14:17;;;;;;;11.65;6.55;;;;;;;24.00;52.36;92947.63;4797052;29;20414;-77
2022/06/14 11:17:05;;;;;;;10.07;7.28;;;;;;;24.31;51.45;92947.31;4788049;29;20031;-77
2022/06/14 11:19:52;;;;;;;9.93;6.47;;;;;;;24.65;52.50;92944.72;4786479;30;20067;-77
2022/06/14 11:22:42;;;;;;;8.75;6.35;;;;;;;24.13;52.55;92946.28;4786338;30;20391;-76
2022/06/14 11:25:26;;;;;;;10.07;6.93;;;;;;;24.19;51.61;92944.09;4794581;29;20042;-77
2022/06/14 11:28:13;;;;;;;9.20;6.20;;;;;;;24.14;52.12;92942.50;4799901;29;20409;-77
2022/06/14 11:31:10;;;;;;;11.18;7.13;;;;;;;24.07;53.29;92950.38;4786213;30;20573;-77
2022/06/14 11:33:59;;;;;;;9.68;6.82;;;;;;;24.26;51.97;92947.63;4801958;29;20031;-77
2022/06/14 11:36:48;;;;;;;12.82;5.80;;;;;;;24.30;51.77;92943.09;4818573;29;20435;-77
2022/06/14 11:39:27;;;;;;;9.43;6.63;;;;;;;24.45;52.51;92946.75;4793630;29;20082;-76
2022/06/14 11:41:54;;;;;;;8.15;5.90;;;;;;;24.66;50.81;92946.28;4786190;30;20062;-77
2022/06/14 11:44:42;;;;;;;14.25;6.88;;;;;;;24.66;51.76;92946.28;4800110;29;20055;-77
2022/06/14 11:47:20;;;;;;;11.68;6.45;;;;;;;24.68;51.08;92940.59;4784794;30;20046;-76
2022/06/14 11:50:00;;;;;;;10.60;6.80;;;;;;;24.20;50.30;92935.69;4800848;29;20376;-76
2022/06/14 11:53:02;;;;;;;9.32;6.43;;;;;;;24.65;51.67;92947.41;4786467;29;20042;-77
2022/06/14 11:55:39;;;;;;;11.85;6.43;;;;;;;24.46;50.51;92932.22;4788437;29;20049;-77
2022/06/14 11:58:23;;;;;;;11.82;6.32;;;;;;;24.77;51.42;92924.22;4791918;29;20106;-77
2022/06/14 12:01:10;;;;;;;12.27;6.40;;;;;;;24.94;50.93;92927.09;4804154;29;20529;-77
2022/06/14 12:03:41;;;;;;;11.73;6.22;;;;;;;24.86;50.25;92927.41;4790189;30;20043;-78
2022/06/14 12:06:14;;;;;;;9.35;6.68;;;;;;;25.09;50.18;92919.25;4790456;30;20050;-77
2022/06/14 12:09:18;;;;;;;8.25;6.32;;;;;;;25.06;49.98;92917.28;4799318;29;20417;-77
2022/06/14 12:11:53;;;;;;;9.95;6.68;;;;;;;24.53;49.56;92920.88;4806957;29;20409;-77
2022/06/14 12:14:51;;;;;;;11.38;6.57;;;;;;;24.67;49.55;92917.59;4807787;29;20459;-77
2022/06/14 12:17:33;;;;;;;9.95;6.32;;;;;;;24.84;49.70;92919.75;4786231;29;20111;-77
2022/06/14 12:20:26;;;;;;;13.05;6.18;;;;;;;25.05;47.43;92919.19;4788705;30;20498;-77
2022/06/14 12:23:14;;;;;;;9.45;5.57;;;;;;;25.11;48.71;92917.75;4786277;30;20044;-77
2022/06/14 12:28:46;;;;;;;8.10;5.70;;;;;;;24.73;48.76;92908.13;4794545;29;20091;-77
2022/06/14 12:31:18;;;;;;;8.15;5.50;;;;;;;24.94;51.41;92913.72;4789683;30;20449;-77
2022/06/14 12:33:53;;;;;;;10.30;6.18;;;;;;;25.22;49.63;92915.19;4794514;29;20409;-77
2022/06/14 12:36:29;;;;;;;8.27;5.80;;;;;;;25.04;49.78;92909.63;4798682;29;20058;-77
2022/06/14 12:39:00;;;;;;;10.32;5.68;;;;;;;24.81;49.62;92915.09;4808372;29;20346;-78
2022/06/14 12:41:33;;;;;;;8.50;6.05;;;;;;;24.52;48.40;92911.31;4821594;29;20062;-77
2022/06/14 12:44:21;;;;;;;7.13;5.35;;;;;;;24.87;49.16;92902.16;4806029;29;20058;-76
2022/06/14 12:46:49;;;;;;;8.52;6.07;;;;;;;25.04;47.14;92908.84;4806408;29;20065;-76